Maple Valley, Ohio
Current Conditions -  °F | °C
As of 6:54 AM on Monday 24 Nov 2014 (Local Time) from KAKR Reporting Station
Light Rain Light Rain  
Wind Chill: 59°   Ceiling: 1600
Heat Index: 59°   Visibility: 6mi
Dew Point: 54°   Wind: 14mph
Humidity: 83%   Direction: 210°SSW
Pressure: 29.33"   Gusts: 31mph
Location:  41.0789°N, 81.5822°W
Report Text: KAKR 241154Z AUTO 21012G27KT 6SM -RA BKN016 OVC023 15/12 A2933 RMK AO2 PK WND 21027/1147 RAB32 SLP929 P0000 60000 70036 T01500122 10156 20139 51017
Loading
Personal Weather Stations






























Interactive Weather Map New forecast layout! Learn more

10-Day Weather Forecast

Advertisements
Track Severe Weather on mobile